sensor_id;sensor_type;location;lat;lon;timestamp;P1;durP1;ratioP1;P2;durP2;ratioP2
21507;SDS011;10915;54.352;9.074;2023-01-15T00:02:12;17.17;;;4.70;;
21507;SDS011;10915;54.352;9.074;2023-01-15T00:04:40;21.27;;;4.23;;
21507;SDS011;10915;54.352;9.074;2023-01-15T00:07:09;21.77;;;5.00;;
21507;SDS011;10915;54.352;9.074;2023-01-15T00:09:35;20.07;;;4.20;;
21507;SDS011;10915;54.352;9.074;2023-01-15T00:12:01;20.30;;;4.63;;
21507;SDS011;10915;54.352;9.074;2023-01-15T00:14:27;21.87;;;5.10;;
21507;SDS011;10915;54.352;9.074;2023-01-15T00:16:53;21.37;;;4.47;;
21507;SDS011;10915;54.352;9.074;2023-01-15T00:19:19;17.70;;;4.20;;
21507;SDS011;10915;54.352;9.074;2023-01-15T00:21:45;20.87;;;4.60;;
21507;SDS011;10915;54.352;9.074;2023-01-15T00:24:10;18.70;;;4.77;;
21507;SDS011;10915;54.352;9.074;2023-01-15T00:27:07;20.73;;;4.43;;
21507;SDS011;10915;54.352;9.074;2023-01-15T00:29:53;19.70;;;4.30;;
21507;SDS011;10915;54.352;9.074;2023-01-15T00:32:18;21.67;;;4.30;;
21507;SDS011;10915;54.352;9.074;2023-01-15T00:34:44;20.20;;;4.63;;
21507;SDS011;10915;54.352;9.074;2023-01-15T00:37:10;17.23;;;4.03;;
21507;SDS011;10915;54.352;9.074;2023-01-15T00:39:36;17.60;;;4.10;;
21507;SDS011;10915;54.352;9.074;2023-01-15T00:42:06;18.73;;;3.87;;
21507;SDS011;10915;54.352;9.074;2023-01-15T00:44:35;15.37;;;3.87;;
21507;SDS011;10915;54.352;9.074;2023-01-15T00:47:05;18.37;;;4.03;;
21507;SDS011;10915;54.352;9.074;2023-01-15T00:49:42;25.23;;;4.90;;
21507;SDS011;10915;54.352;9.074;2023-01-15T00:52:14;21.57;;;3.90;;
21507;SDS011;10915;54.352;9.074;2023-01-15T00:54:43;18.63;;;4.13;;
21507;SDS011;10915;54.352;9.074;2023-01-15T00:57:12;22.37;;;4.13;;
21507;SDS011;10915;54.352;9.074;2023-01-15T00:59:46;16.63;;;4.10;;
21507;SDS011;10915;54.352;9.074;2023-01-15T01:02:13;19.93;;;4.17;;
21507;SDS011;10915;54.352;9.074;2023-01-15T01:04:42;23.37;;;5.03;;
21507;SDS011;10915;54.352;9.074;2023-01-15T01:07:12;16.17;;;3.97;;
21507;SDS011;10915;54.352;9.074;2023-01-15T01:09:56;15.93;;;4.40;;
21507;SDS011;10915;54.352;9.074;2023-01-15T01:12:35;19.03;;;4.87;;
21507;SDS011;10915;54.352;9.074;2023-01-15T01:15:23;20.47;;;4.57;;
21507;SDS011;10915;54.352;9.074;2023-01-15T01:17:49;20.33;;;4.20;;
21507;SDS011;10915;54.352;9.074;2023-01-15T01:20:27;18.50;;;4.20;;
21507;SDS011;10915;54.352;9.074;2023-01-15T01:23:06;17.43;;;4.57;;
21507;SDS011;10915;54.352;9.074;2023-01-15T01:25:32;25.87;;;4.60;;
21507;SDS011;10915;54.352;9.074;2023-01-15T01:28:03;21.40;;;4.33;;
21507;SDS011;10915;54.352;9.074;2023-01-15T01:30:29;18.53;;;5.27;;
21507;SDS011;10915;54.352;9.074;2023-01-15T01:33:08;20.53;;;4.73;;
21507;SDS011;10915;54.352;9.074;2023-01-15T01:35:36;22.07;;;3.93;;
21507;SDS011;10915;54.352;9.074;2023-01-15T01:38:08;29.00;;;5.40;;
21507;SDS011;10915;54.352;9.074;2023-01-15T01:40:53;19.07;;;4.50;;
21507;SDS011;10915;54.352;9.074;2023-01-15T01:47:06;21.90;;;4.63;;
21507;SDS011;10915;54.352;9.074;2023-01-15T01:49:35;26.00;;;5.07;;
21507;SDS011;10915;54.352;9.074;2023-01-15T01:52:08;21.63;;;4.90;;
21507;SDS011;10915;54.352;9.074;2023-01-15T01:54:45;21.53;;;4.67;;
21507;SDS011;10915;54.352;9.074;2023-01-15T01:57:15;26.50;;;4.67;;
21507;SDS011;10915;54.352;9.074;2023-01-15T01:59:42;24.20;;;4.80;;
21507;SDS011;10915;54.352;9.074;2023-01-15T02:02:14;26.60;;;4.87;;
21507;SDS011;10915;54.352;9.074;2023-01-15T02:04:42;18.87;;;4.30;;
21507;SDS011;10915;54.352;9.074;2023-01-15T02:07:11;23.33;;;4.83;;
21507;SDS011;10915;54.352;9.074;2023-01-15T02:09:37;20.80;;;4.13;;
21507;SDS011;10915;54.352;9.074;2023-01-15T02:12:21;13.93;;;3.73;;
21507;SDS011;10915;54.352;9.074;2023-01-15T02:15:14;19.00;;;4.60;;
21507;SDS011;10915;54.352;9.074;2023-01-15T02:17:48;21.30;;;4.67;;
21507;SDS011;10915;54.352;9.074;2023-01-15T02:35:28;19.90;;;4.30;;
21507;SDS011;10915;54.352;9.074;2023-01-15T02:38:29;24.43;;;5.40;;
21507;SDS011;10915;54.352;9.074;2023-01-15T02:41:00;24.77;;;5.00;;
21507;SDS011;10915;54.352;9.074;2023-01-15T02:43:31;22.00;;;5.03;;
21507;SDS011;10915;54.352;9.074;2023-01-15T02:46:02;18.67;;;3.83;;
21507;SDS011;10915;54.352;9.074;2023-01-15T02:48:31;19.47;;;4.40;;
21507;SDS011;10915;54.352;9.074;2023-01-15T02:51:14;20.20;;;4.60;;
21507;SDS011;10915;54.352;9.074;2023-01-15T02:53:45;17.50;;;4.60;;
21507;SDS011;10915;54.352;9.074;2023-01-15T02:56:18;20.67;;;4.47;;
21507;SDS011;10915;54.352;9.074;2023-01-15T02:59:04;13.87;;;3.30;;
21507;SDS011;10915;54.352;9.074;2023-01-15T03:02:04;11.80;;;3.20;;
21507;SDS011;10915;54.352;9.074;2023-01-15T03:04:50;10.50;;;2.60;;
21507;SDS011;10915;54.352;9.074;2023-01-15T03:07:24;16.37;;;3.80;;
21507;SDS011;10915;54.352;9.074;2023-01-15T03:09:57;19.23;;;4.00;;
21507;SDS011;10915;54.352;9.074;2023-01-15T03:12:49;21.10;;;5.00;;
21507;SDS011;10915;54.352;9.074;2023-01-15T03:15:37;22.07;;;4.03;;
21507;SDS011;10915;54.352;9.074;2023-01-15T03:18:35;20.90;;;4.80;;
21507;SDS011;10915;54.352;9.074;2023-01-15T03:24:24;18.43;;;4.27;;
21507;SDS011;10915;54.352;9.074;2023-01-15T03:26:57;24.77;;;4.90;;
21507;SDS011;10915;54.352;9.074;2023-01-15T03:29:38;19.73;;;5.23;;
21507;SDS011;10915;54.352;9.074;2023-01-15T03:32:15;16.80;;;4.00;;
21507;SDS011;10915;54.352;9.074;2023-01-15T03:34:49;22.20;;;4.83;;
21507;SDS011;10915;54.352;9.074;2023-01-15T03:37:20;24.83;;;5.47;;
21507;SDS011;10915;54.352;9.074;2023-01-15T03:39:48;27.00;;;4.97;;
21507;SDS011;10915;54.352;9.074;2023-01-15T03:45:02;23.00;;;4.57;;
21507;SDS011;10915;54.352;9.074;2023-01-15T03:50:38;24.90;;;4.33;;
21507;SDS011;10915;54.352;9.074;2023-01-15T03:53:56;20.03;;;5.00;;
21507;SDS011;10915;54.352;9.074;2023-01-15T04:02:19;22.50;;;5.17;;
21507;SDS011;10915;54.352;9.074;2023-01-15T04:04:47;20.50;;;5.20;;
21507;SDS011;10915;54.352;9.074;2023-01-15T04:07:21;17.40;;;4.33;;
21507;SDS011;10915;54.352;9.074;2023-01-15T04:09:47;23.43;;;4.70;;
21507;SDS011;10915;54.352;9.074;2023-01-15T04:12:32;24.97;;;5.47;;
21507;SDS011;10915;54.352;9.074;2023-01-15T04:15:02;20.03;;;5.03;;
21507;SDS011;10915;54.352;9.074;2023-01-15T04:17:28;18.87;;;5.03;;
21507;SDS011;10915;54.352;9.074;2023-01-15T04:19:53;19.03;;;4.67;;
21507;SDS011;10915;54.352;9.074;2023-01-15T04:22:19;20.43;;;5.47;;
21507;SDS011;10915;54.352;9.074;2023-01-15T04:24:51;26.30;;;5.27;;
21507;SDS011;10915;54.352;9.074;2023-01-15T04:27:22;23.87;;;5.53;;
21507;SDS011;10915;54.352;9.074;2023-01-15T04:29:50;21.60;;;4.60;;
21507;SDS011;10915;54.352;9.074;2023-01-15T04:32:26;20.47;;;5.00;;
21507;SDS011;10915;54.352;9.074;2023-01-15T04:34:51;18.33;;;4.67;;
21507;SDS011;10915;54.352;9.074;2023-01-15T04:37:17;21.47;;;4.37;;
21507;SDS011;10915;54.352;9.074;2023-01-15T04:39:49;22.60;;;5.37;;
21507;SDS011;10915;54.352;9.074;2023-01-15T04:42:21;17.53;;;5.07;;
21507;SDS011;10915;54.352;9.074;2023-01-15T04:45:08;24.40;;;5.17;;
21507;SDS011;10915;54.352;9.074;2023-01-15T04:47:40;18.87;;;4.93;;
21507;SDS011;10915;54.352;9.074;2023-01-15T04:50:05;19.83;;;6.07;;
21507;SDS011;10915;54.352;9.074;2023-01-15T04:52:35;24.33;;;6.27;;
21507;SDS011;10915;54.352;9.074;2023-01-15T04:55:02;20.37;;;5.67;;
21507;SDS011;10915;54.352;9.074;2023-01-15T04:57:35;19.03;;;4.53;;
21507;SDS011;10915;54.352;9.074;2023-01-15T05:00:03;19.50;;;5.33;;
21507;SDS011;10915;54.352;9.074;2023-01-15T05:02:29;17.83;;;5.27;;
21507;SDS011;10915;54.352;9.074;2023-01-15T05:04:57;20.37;;;5.07;;
21507;SDS011;10915;54.352;9.074;2023-01-15T05:07:23;25.83;;;5.93;;
21507;SDS011;10915;54.352;9.074;2023-01-15T05:09:52;25.70;;;7.07;;
21507;SDS011;10915;54.352;9.074;2023-01-15T05:12:21;26.73;;;7.30;;
21507;SDS011;10915;54.352;9.074;2023-01-15T05:14:53;29.40;;;6.30;;
21507;SDS011;10915;54.352;9.074;2023-01-15T05:17:22;19.20;;;5.37;;
21507;SDS011;10915;54.352;9.074;2023-01-15T05:19:48;21.37;;;5.57;;
21507;SDS011;10915;54.352;9.074;2023-01-15T05:22:14;22.33;;;5.83;;
21507;SDS011;10915;54.352;9.074;2023-01-15T05:24:40;15.60;;;4.10;;
21507;SDS011;10915;54.352;9.074;2023-01-15T05:27:11;23.07;;;5.23;;
21507;SDS011;10915;54.352;9.074;2023-01-15T05:29:43;20.87;;;4.93;;
21507;SDS011;10915;54.352;9.074;2023-01-15T05:32:11;24.80;;;5.73;;
21507;SDS011;10915;54.352;9.074;2023-01-15T05:34:38;23.23;;;4.60;;
21507;SDS011;10915;54.352;9.074;2023-01-15T05:37:13;18.57;;;4.83;;
21507;SDS011;10915;54.352;9.074;2023-01-15T05:39:39;21.77;;;5.03;;
21507;SDS011;10915;54.352;9.074;2023-01-15T05:42:05;22.67;;;5.10;;
21507;SDS011;10915;54.352;9.074;2023-01-15T05:44:32;23.57;;;4.40;;
21507;SDS011;10915;54.352;9.074;2023-01-15T05:46:59;18.57;;;4.53;;
21507;SDS011;10915;54.352;9.074;2023-01-15T05:49:30;25.60;;;5.27;;
21507;SDS011;10915;54.352;9.074;2023-01-15T05:51:58;21.50;;;5.73;;
21507;SDS011;10915;54.352;9.074;2023-01-15T05:54:33;19.73;;;5.10;;
21507;SDS011;10915;54.352;9.074;2023-01-15T05:57:00;21.63;;;4.23;;
21507;SDS011;10915;54.352;9.074;2023-01-15T05:59:33;22.10;;;4.43;;
21507;SDS011;10915;54.352;9.074;2023-01-15T06:01:58;20.30;;;4.57;;
21507;SDS011;10915;54.352;9.074;2023-01-15T06:04:27;17.57;;;3.77;;
21507;SDS011;10915;54.352;9.074;2023-01-15T06:06:53;22.37;;;5.27;;
21507;SDS011;10915;54.352;9.074;2023-01-15T06:09:23;22.07;;;5.33;;
21507;SDS011;10915;54.352;9.074;2023-01-15T06:12:10;18.53;;;4.07;;
21507;SDS011;10915;54.352;9.074;2023-01-15T06:14:38;25.60;;;5.53;;
21507;SDS011;10915;54.352;9.074;2023-01-15T06:17:10;22.40;;;5.03;;
21507;SDS011;10915;54.352;9.074;2023-01-15T06:19:39;21.70;;;5.37;;
21507;SDS011;10915;54.352;9.074;2023-01-15T06:22:07;20.67;;;5.00;;
21507;SDS011;10915;54.352;9.074;2023-01-15T06:24:36;20.87;;;4.77;;
21507;SDS011;10915;54.352;9.074;2023-01-15T06:27:05;20.03;;;4.33;;
21507;SDS011;10915;54.352;9.074;2023-01-15T06:29:31;21.67;;;6.17;;
21507;SDS011;10915;54.352;9.074;2023-01-15T06:32:00;24.23;;;5.17;;
21507;SDS011;10915;54.352;9.074;2023-01-15T06:34:35;20.27;;;4.87;;
21507;SDS011;10915;54.352;9.074;2023-01-15T06:37:07;18.60;;;4.40;;
21507;SDS011;10915;54.352;9.074;2023-01-15T06:39:32;18.30;;;4.57;;
21507;SDS011;10915;54.352;9.074;2023-01-15T06:41:58;17.93;;;4.47;;
21507;SDS011;10915;54.352;9.074;2023-01-15T06:44:42;26.83;;;5.60;;
21507;SDS011;10915;54.352;9.074;2023-01-15T06:47:26;21.30;;;4.60;;
21507;SDS011;10915;54.352;9.074;2023-01-15T06:49:56;22.50;;;5.00;;
21507;SDS011;10915;54.352;9.074;2023-01-15T06:52:23;22.80;;;5.50;;
21507;SDS011;10915;54.352;9.074;2023-01-15T06:54:49;24.47;;;5.13;;
21507;SDS011;10915;54.352;9.074;2023-01-15T06:57:16;22.00;;;5.40;;
21507;SDS011;10915;54.352;9.074;2023-01-15T06:59:43;17.23;;;5.10;;
21507;SDS011;10915;54.352;9.074;2023-01-15T07:02:09;33.20;;;5.13;;
21507;SDS011;10915;54.352;9.074;2023-01-15T07:04:36;16.07;;;4.40;;
21507;SDS011;10915;54.352;9.074;2023-01-15T07:07:02;21.43;;;5.83;;
21507;SDS011;10915;54.352;9.074;2023-01-15T07:09:27;18.40;;;4.43;;
21507;SDS011;10915;54.352;9.074;2023-01-15T07:11:53;20.70;;;4.53;;
21507;SDS011;10915;54.352;9.074;2023-01-15T07:14:20;17.43;;;5.20;;
21507;SDS011;10915;54.352;9.074;2023-01-15T07:16:48;16.67;;;4.60;;
21507;SDS011;10915;54.352;9.074;2023-01-15T07:19:14;18.67;;;4.60;;
21507;SDS011;10915;54.352;9.074;2023-01-15T07:21:40;25.07;;;4.87;;
21507;SDS011;10915;54.352;9.074;2023-01-15T07:24:06;24.40;;;4.70;;
21507;SDS011;10915;54.352;9.074;2023-01-15T07:26:32;19.33;;;4.63;;
21507;SDS011;10915;54.352;9.074;2023-01-15T07:28:58;17.87;;;4.30;;
21507;SDS011;10915;54.352;9.074;2023-01-15T07:31:27;19.27;;;4.73;;
21507;SDS011;10915;54.352;9.074;2023-01-15T07:33:54;23.37;;;5.03;;
21507;SDS011;10915;54.352;9.074;2023-01-15T07:36:21;26.93;;;5.47;;
21507;SDS011;10915;54.352;9.074;2023-01-15T07:38:47;21.97;;;4.90;;
21507;SDS011;10915;54.352;9.074;2023-01-15T07:41:14;19.57;;;4.70;;
21507;SDS011;10915;54.352;9.074;2023-01-15T07:43:59;16.53;;;4.07;;
21507;SDS011;10915;54.352;9.074;2023-01-15T07:46:43;19.97;;;5.63;;
21507;SDS011;10915;54.352;9.074;2023-01-15T07:49:27;17.33;;;4.30;;
21507;SDS011;10915;54.352;9.074;2023-01-15T07:52:16;15.53;;;3.97;;
21507;SDS011;10915;54.352;9.074;2023-01-15T07:54:43;22.23;;;4.67;;
21507;SDS011;10915;54.352;9.074;2023-01-15T07:57:11;20.67;;;4.97;;
21507;SDS011;10915;54.352;9.074;2023-01-15T07:59:38;19.13;;;4.90;;
21507;SDS011;10915;54.352;9.074;2023-01-15T08:02:04;27.10;;;9.37;;
21507;SDS011;10915;54.352;9.074;2023-01-15T08:04:31;19.10;;;5.00;;
21507;SDS011;10915;54.352;9.074;2023-01-15T08:07:00;19.90;;;5.23;;
21507;SDS011;10915;54.352;9.074;2023-01-15T08:09:27;22.90;;;5.03;;
21507;SDS011;10915;54.352;9.074;2023-01-15T08:11:54;19.37;;;4.53;;
21507;SDS011;10915;54.352;9.074;2023-01-15T08:14:38;18.80;;;5.57;;
21507;SDS011;10915;54.352;9.074;2023-01-15T08:17:22;16.00;;;4.93;;
21507;SDS011;10915;54.352;9.074;2023-01-15T08:19:48;24.13;;;4.73;;
21507;SDS011;10915;54.352;9.074;2023-01-15T08:22:14;18.03;;;4.47;;
21507;SDS011;10915;54.352;9.074;2023-01-15T08:24:39;19.23;;;4.57;;
21507;SDS011;10915;54.352;9.074;2023-01-15T08:27:05;17.93;;;4.20;;
21507;SDS011;10915;54.352;9.074;2023-01-15T08:29:31;16.97;;;4.50;;
21507;SDS011;10915;54.352;9.074;2023-01-15T08:31:57;17.70;;;4.40;;
21507;SDS011;10915;54.352;9.074;2023-01-15T08:34:23;25.93;;;5.17;;
21507;SDS011;10915;54.352;9.074;2023-01-15T08:36:49;16.13;;;3.97;;
21507;SDS011;10915;54.352;9.074;2023-01-15T08:39:21;13.90;;;3.90;;
21507;SDS011;10915;54.352;9.074;2023-01-15T08:41:47;15.80;;;4.87;;
21507;SDS011;10915;54.352;9.074;2023-01-15T08:44:12;22.77;;;4.90;;
21507;SDS011;10915;54.352;9.074;2023-01-15T08:46:41;15.30;;;4.17;;
21507;SDS011;10915;54.352;9.074;2023-01-15T08:49:08;13.93;;;3.83;;
21507;SDS011;10915;54.352;9.074;2023-01-15T08:51:34;15.33;;;3.63;;
21507;SDS011;10915;54.352;9.074;2023-01-15T08:54:00;23.23;;;3.90;;
21507;SDS011;10915;54.352;9.074;2023-01-15T08:56:25;22.70;;;4.40;;
21507;SDS011;10915;54.352;9.074;2023-01-15T08:58:52;23.10;;;5.00;;
21507;SDS011;10915;54.352;9.074;2023-01-15T09:01:17;16.73;;;4.50;;
21507;SDS011;10915;54.352;9.074;2023-01-15T09:03:43;18.93;;;4.47;;
21507;SDS011;10915;54.352;9.074;2023-01-15T09:06:09;21.03;;;4.70;;
21507;SDS011;10915;54.352;9.074;2023-01-15T09:08:36;16.77;;;3.90;;
21507;SDS011;10915;54.352;9.074;2023-01-15T09:11:03;20.43;;;4.47;;
21507;SDS011;10915;54.352;9.074;2023-01-15T09:13:29;14.67;;;4.10;;
21507;SDS011;10915;54.352;9.074;2023-01-15T09:15:59;16.23;;;4.17;;
21507;SDS011;10915;54.352;9.074;2023-01-15T09:18:27;14.50;;;3.63;;
21507;SDS011;10915;54.352;9.074;2023-01-15T09:20:52;21.73;;;4.70;;
21507;SDS011;10915;54.352;9.074;2023-01-15T09:23:18;17.17;;;4.07;;
21507;SDS011;10915;54.352;9.074;2023-01-15T09:25:54;16.87;;;3.20;;
21507;SDS011;10915;54.352;9.074;2023-01-15T09:28:20;15.03;;;3.90;;
21507;SDS011;10915;54.352;9.074;2023-01-15T09:30:46;16.83;;;3.93;;
21507;SDS011;10915;54.352;9.074;2023-01-15T09:33:12;14.47;;;3.83;;
21507;SDS011;10915;54.352;9.074;2023-01-15T09:35:39;13.33;;;3.80;;
21507;SDS011;10915;54.352;9.074;2023-01-15T09:38:16;16.23;;;3.60;;
21507;SDS011;10915;54.352;9.074;2023-01-15T09:40:45;15.77;;;4.30;;
21507;SDS011;10915;54.352;9.074;2023-01-15T09:43:33;13.87;;;3.83;;
21507;SDS011;10915;54.352;9.074;2023-01-15T09:46:49;13.93;;;3.50;;
21507;SDS011;10915;54.352;9.074;2023-01-15T09:55:14;13.50;;;3.63;;
21507;SDS011;10915;54.352;9.074;2023-01-15T09:57:49;12.90;;;2.70;;
21507;SDS011;10915;54.352;9.074;2023-01-15T10:00:20;14.77;;;3.20;;
21507;SDS011;10915;54.352;9.074;2023-01-15T10:02:56;11.73;;;2.60;;
21507;SDS011;10915;54.352;9.074;2023-01-15T10:10:46;18.17;;;4.80;;
21507;SDS011;10915;54.352;9.074;2023-01-15T10:15:59;15.07;;;3.87;;
21507;SDS011;10915;54.352;9.074;2023-01-15T10:18:25;22.43;;;4.07;;
21507;SDS011;10915;54.352;9.074;2023-01-15T10:26:31;16.83;;;3.93;;
21507;SDS011;10915;54.352;9.074;2023-01-15T10:31:51;19.13;;;4.77;;
21507;SDS011;10915;54.352;9.074;2023-01-15T10:46:00;14.73;;;3.63;;
21507;SDS011;10915;54.352;9.074;2023-01-15T10:49:15;13.80;;;3.53;;
21507;SDS011;10915;54.352;9.074;2023-01-15T10:54:06;18.47;;;3.93;;
21507;SDS011;10915;54.352;9.074;2023-01-15T10:56:40;13.53;;;3.83;;
21507;SDS011;10915;54.352;9.074;2023-01-15T10:59:21;15.47;;;3.20;;
21507;SDS011;10915;54.352;9.074;2023-01-15T11:01:58;14.43;;;3.67;;
21507;SDS011;10915;54.352;9.074;2023-01-15T11:04:26;14.50;;;3.87;;
21507;SDS011;10915;54.352;9.074;2023-01-15T11:06:55;15.93;;;3.60;;
21507;SDS011;10915;54.352;9.074;2023-01-15T11:09:24;21.63;;;3.97;;
21507;SDS011;10915;54.352;9.074;2023-01-15T11:14:50;16.77;;;4.27;;
21507;SDS011;10915;54.352;9.074;2023-01-15T11:20:33;16.13;;;3.70;;
21507;SDS011;10915;54.352;9.074;2023-01-15T11:23:08;12.87;;;3.67;;
21507;SDS011;10915;54.352;9.074;2023-01-15T11:25:36;15.97;;;2.93;;
21507;SDS011;10915;54.352;9.074;2023-01-15T11:28:04;15.00;;;2.87;;
21507;SDS011;10915;54.352;9.074;2023-01-15T11:30:36;11.03;;;3.40;;
21507;SDS011;10915;54.352;9.074;2023-01-15T11:33:04;14.57;;;2.87;;
21507;SDS011;10915;54.352;9.074;2023-01-15T11:35:48;14.13;;;3.20;;
21507;SDS011;10915;54.352;9.074;2023-01-15T11:38:22;10.47;;;3.10;;
21507;SDS011;10915;54.352;9.074;2023-01-15T11:40:53;14.67;;;3.70;;
21507;SDS011;10915;54.352;9.074;2023-01-15T11:43:22;11.60;;;3.10;;
21507;SDS011;10915;54.352;9.074;2023-01-15T11:46:27;13.80;;;3.10;;
21507;SDS011;10915;54.352;9.074;2023-01-15T11:49:17;12.40;;;3.33;;
21507;SDS011;10915;54.352;9.074;2023-01-15T11:52:13;10.43;;;2.47;;
21507;SDS011;10915;54.352;9.074;2023-01-15T11:54:43;11.27;;;2.90;;
21507;SDS011;10915;54.352;9.074;2023-01-15T11:57:26;10.37;;;3.20;;
21507;SDS011;10915;54.352;9.074;2023-01-15T11:59:55;12.83;;;3.23;;
21507;SDS011;10915;54.352;9.074;2023-01-15T12:05:16;13.43;;;3.03;;
21507;SDS011;10915;54.352;9.074;2023-01-15T12:07:46;11.77;;;3.07;;
21507;SDS011;10915;54.352;9.074;2023-01-15T12:27:11;10.57;;;3.07;;
21507;SDS011;10915;54.352;9.074;2023-01-15T12:29:49;17.70;;;3.87;;
21507;SDS011;10915;54.352;9.074;2023-01-15T12:32:39;13.63;;;3.90;;
21507;SDS011;10915;54.352;9.074;2023-01-15T12:38:38;15.07;;;3.57;;
21507;SDS011;10915;54.352;9.074;2023-01-15T12:44:17;13.70;;;3.47;;
21507;SDS011;10915;54.352;9.074;2023-01-15T12:47:06;11.13;;;3.27;;
21507;SDS011;10915;54.352;9.074;2023-01-15T12:49:39;17.43;;;4.47;;
21507;SDS011;10915;54.352;9.074;2023-01-15T12:52:10;18.20;;;4.17;;
21507;SDS011;10915;54.352;9.074;2023-01-15T12:54:47;19.73;;;4.60;;
21507;SDS011;10915;54.352;9.074;2023-01-15T12:57:41;20.87;;;4.57;;
21507;SDS011;10915;54.352;9.074;2023-01-15T13:05:50;22.27;;;4.33;;
21507;SDS011;10915;54.352;9.074;2023-01-15T13:11:28;21.30;;;4.70;;
21507;SDS011;10915;54.352;9.074;2023-01-15T13:13:54;17.17;;;4.53;;
21507;SDS011;10915;54.352;9.074;2023-01-15T13:19:17;19.90;;;5.27;;
21507;SDS011;10915;54.352;9.074;2023-01-15T13:22:09;23.33;;;5.63;;
21507;SDS011;10915;54.352;9.074;2023-01-15T13:25:23;22.53;;;6.17;;
21507;SDS011;10915;54.352;9.074;2023-01-15T13:30:44;28.33;;;6.00;;
21507;SDS011;10915;54.352;9.074;2023-01-15T13:33:43;18.97;;;5.20;;
21507;SDS011;10915;54.352;9.074;2023-01-15T13:39:10;23.30;;;6.37;;
21507;SDS011;10915;54.352;9.074;2023-01-15T13:42:02;32.17;;;6.50;;
21507;SDS011;10915;54.352;9.074;2023-01-15T13:44:49;25.33;;;6.93;;
21507;SDS011;10915;54.352;9.074;2023-01-15T13:47:20;26.33;;;6.67;;
21507;SDS011;10915;54.352;9.074;2023-01-15T13:49:51;30.70;;;7.03;;
21507;SDS011;10915;54.352;9.074;2023-01-15T13:52:27;28.87;;;6.17;;
21507;SDS011;10915;54.352;9.074;2023-01-15T13:54:53;28.73;;;7.40;;
21507;SDS011;10915;54.352;9.074;2023-01-15T13:57:36;22.93;;;6.73;;
21507;SDS011;10915;54.352;9.074;2023-01-15T14:00:24;27.30;;;7.00;;
21507;SDS011;10915;54.352;9.074;2023-01-15T14:02:58;36.00;;;7.93;;
21507;SDS011;10915;54.352;9.074;2023-01-15T14:05:27;29.73;;;6.40;;
21507;SDS011;10915;54.352;9.074;2023-01-15T14:07:57;28.87;;;6.00;;
21507;SDS011;10915;54.352;9.074;2023-01-15T14:10:32;34.73;;;7.00;;
21507;SDS011;10915;54.352;9.074;2023-01-15T14:27:03;35.13;;;7.67;;
21507;SDS011;10915;54.352;9.074;2023-01-15T14:35:36;42.63;;;9.10;;
21507;SDS011;10915;54.352;9.074;2023-01-15T14:38:11;45.30;;;9.80;;
21507;SDS011;10915;54.352;9.074;2023-01-15T14:43:23;39.80;;;9.53;;
21507;SDS011;10915;54.352;9.074;2023-01-15T14:45:53;25.67;;;6.00;;
21507;SDS011;10915;54.352;9.074;2023-01-15T14:48:20;32.13;;;6.23;;
21507;SDS011;10915;54.352;9.074;2023-01-15T14:53:47;22.37;;;5.33;;
21507;SDS011;10915;54.352;9.074;2023-01-15T14:56:23;23.17;;;6.17;;
21507;SDS011;10915;54.352;9.074;2023-01-15T14:58:55;23.90;;;5.20;;
21507;SDS011;10915;54.352;9.074;2023-01-15T15:06:50;23.60;;;5.13;;
21507;SDS011;10915;54.352;9.074;2023-01-15T15:09:18;16.53;;;4.33;;
21507;SDS011;10915;54.352;9.074;2023-01-15T15:11:52;26.07;;;5.10;;
21507;SDS011;10915;54.352;9.074;2023-01-15T15:14:40;18.20;;;3.87;;
21507;SDS011;10915;54.352;9.074;2023-01-15T15:17:13;21.93;;;4.13;;
21507;SDS011;10915;54.352;9.074;2023-01-15T15:23:37;25.57;;;5.47;;
21507;SDS011;10915;54.352;9.074;2023-01-15T15:26:24;19.80;;;4.67;;
21507;SDS011;10915;54.352;9.074;2023-01-15T15:29:21;27.67;;;5.83;;
21507;SDS011;10915;54.352;9.074;2023-01-15T15:31:56;23.10;;;6.07;;
21507;SDS011;10915;54.352;9.074;2023-01-15T15:34:25;23.83;;;6.17;;
21507;SDS011;10915;54.352;9.074;2023-01-15T15:36:52;27.33;;;6.10;;
21507;SDS011;10915;54.352;9.074;2023-01-15T15:39:33;28.63;;;6.23;;
21507;SDS011;10915;54.352;9.074;2023-01-15T15:42:00;30.87;;;7.33;;
21507;SDS011;10915;54.352;9.074;2023-01-15T15:44:54;31.33;;;6.60;;
21507;SDS011;10915;54.352;9.074;2023-01-15T15:47:41;27.97;;;6.03;;
21507;SDS011;10915;54.352;9.074;2023-01-15T15:50:26;31.67;;;5.63;;
21507;SDS011;10915;54.352;9.074;2023-01-15T15:52:55;17.33;;;4.90;;
21507;SDS011;10915;54.352;9.074;2023-01-15T15:55:22;29.33;;;6.50;;
21507;SDS011;10915;54.352;9.074;2023-01-15T15:57:54;24.53;;;6.60;;
21507;SDS011;10915;54.352;9.074;2023-01-15T16:00:24;26.20;;;6.10;;
21507;SDS011;10915;54.352;9.074;2023-01-15T16:03:00;32.30;;;5.97;;
21507;SDS011;10915;54.352;9.074;2023-01-15T16:05:30;30.10;;;7.17;;
21507;SDS011;10915;54.352;9.074;2023-01-15T16:10:42;30.70;;;7.67;;
21507;SDS011;10915;54.352;9.074;2023-01-15T16:15:56;40.50;;;9.20;;
21507;SDS011;10915;54.352;9.074;2023-01-15T16:18:41;36.10;;;8.47;;
21507;SDS011;10915;54.352;9.074;2023-01-15T16:21:15;42.90;;;8.17;;
21507;SDS011;10915;54.352;9.074;2023-01-15T16:23:54;40.77;;;8.80;;
21507;SDS011;10915;54.352;9.074;2023-01-15T16:26:33;40.23;;;8.20;;
21507;SDS011;10915;54.352;9.074;2023-01-15T16:29:06;28.53;;;6.33;;
21507;SDS011;10915;54.352;9.074;2023-01-15T16:31:42;26.33;;;6.73;;
21507;SDS011;10915;54.352;9.074;2023-01-15T16:34:10;26.53;;;7.20;;
21507;SDS011;10915;54.352;9.074;2023-01-15T16:36:44;26.70;;;6.57;;
21507;SDS011;10915;54.352;9.074;2023-01-15T16:41:53;28.07;;;5.80;;
21507;SDS011;10915;54.352;9.074;2023-01-15T16:44:40;30.80;;;7.63;;
21507;SDS011;10915;54.352;9.074;2023-01-15T16:47:24;38.77;;;8.93;;
21507;SDS011;10915;54.352;9.074;2023-01-15T16:49:52;35.90;;;8.73;;
21507;SDS011;10915;54.352;9.074;2023-01-15T17:00:44;19.40;;;4.53;;
21507;SDS011;10915;54.352;9.074;2023-01-15T17:05:48;28.07;;;5.33;;
21507;SDS011;10915;54.352;9.074;2023-01-15T17:08:18;25.93;;;5.83;;
21507;SDS011;10915;54.352;9.074;2023-01-15T17:10:58;28.67;;;7.10;;
21507;SDS011;10915;54.352;9.074;2023-01-15T17:13:33;26.07;;;6.30;;
21507;SDS011;10915;54.352;9.074;2023-01-15T17:16:05;31.70;;;7.00;;
21507;SDS011;10915;54.352;9.074;2023-01-15T17:18:43;34.27;;;7.13;;
21507;SDS011;10915;54.352;9.074;2023-01-15T17:21:10;30.93;;;7.77;;
21507;SDS011;10915;54.352;9.074;2023-01-15T17:23:45;28.17;;;6.63;;
21507;SDS011;10915;54.352;9.074;2023-01-15T17:26:13;30.87;;;6.80;;
21507;SDS011;10915;54.352;9.074;2023-01-15T17:28:42;27.53;;;6.07;;
21507;SDS011;10915;54.352;9.074;2023-01-15T17:31:10;24.03;;;6.20;;
21507;SDS011;10915;54.352;9.074;2023-01-15T17:33:50;26.40;;;6.33;;
21507;SDS011;10915;54.352;9.074;2023-01-15T17:36:16;25.33;;;6.17;;
21507;SDS011;10915;54.352;9.074;2023-01-15T17:38:43;26.13;;;7.00;;
21507;SDS011;10915;54.352;9.074;2023-01-15T17:41:10;39.23;;;9.07;;
21507;SDS011;10915;54.352;9.074;2023-01-15T17:43:37;35.13;;;7.43;;
21507;SDS011;10915;54.352;9.074;2023-01-15T17:46:02;38.57;;;8.70;;
21507;SDS011;10915;54.352;9.074;2023-01-15T17:48:28;38.80;;;9.90;;
21507;SDS011;10915;54.352;9.074;2023-01-15T17:50:54;37.80;;;8.80;;
21507;SDS011;10915;54.352;9.074;2023-01-15T17:53:20;37.53;;;7.87;;
21507;SDS011;10915;54.352;9.074;2023-01-15T17:55:46;34.50;;;7.10;;
21507;SDS011;10915;54.352;9.074;2023-01-15T17:58:30;31.47;;;6.00;;
21507;SDS011;10915;54.352;9.074;2023-01-15T18:01:18;20.63;;;5.20;;